Roxbury Crossing, Massachusetts
Current Conditions -  °F | °C
As of 1:54 PM on Friday 24 Oct 2014 (Local Time) from KBOS Reporting Station
Overcast Overcast  
Wind Chill: 50°   Ceiling: 1700
Heat Index: 50°   Visibility: 10mi
Dew Point: 45°   Wind: 14mph
Humidity: 83%   Direction: 310°NW
Pressure: 29.68"   Gusts: NA
Location:  42.3325°N, 71.0965°W
Report Text: KBOS 241754Z 31012KT 10SM FEW010 OVC017 10/07 A2968 RMK AO2 SLP051 T01000072 10106 20089 58009
Loading
Personal Weather Stations






























Interactive Weather Map
Tropical Storm Tracking
New forecast layout! Learn more

10-Day Weather Forecast

Advertisements
Track Severe Weather on mobile